createdAt,value
2023-03-30T00:00:18.044Z,0.50
2023-03-30T00:02:48.687Z,0.40
2023-03-30T00:05:18.673Z,0.30
2023-03-30T00:07:50.421Z,0.57
2023-03-30T00:10:20.555Z,0.50
2023-03-30T00:12:50.587Z,0.50
2023-03-30T00:15:21.965Z,0.40
2023-03-30T00:17:50.741Z,0.40
2023-03-30T00:20:19.233Z,0.40
2023-03-30T00:22:49.628Z,0.40
2023-03-30T00:25:19.727Z,0.40
2023-03-30T00:27:48.476Z,0.45
2023-03-30T00:30:19.612Z,0.40
2023-03-30T00:32:48.613Z,0.40
2023-03-30T00:35:17.140Z,0.50
2023-03-30T00:37:48.956Z,0.43
2023-03-30T00:40:22.913Z,0.50
2023-03-30T00:42:51.296Z,0.47
2023-03-30T00:45:23.381Z,0.30
2023-03-30T00:47:56.475Z,0.45
2023-03-30T00:50:29.405Z,0.45
2023-03-30T00:53:00.532Z,0.40
2023-03-30T00:55:33.776Z,0.43
2023-03-30T00:58:03.041Z,0.40
2023-03-30T01:00:32.674Z,0.40
2023-03-30T01:03:06.066Z,0.43
2023-03-30T01:05:36.916Z,0.40
2023-03-30T01:08:07.219Z,0.40
2023-03-30T01:10:37.538Z,0.52
2023-03-30T01:13:06.112Z,0.50
2023-03-30T01:15:40.180Z,0.40
2023-03-30T01:18:23.731Z,0.43
2023-03-30T01:21:24.158Z,0.40
2023-03-30T01:24:17.511Z,0.40
2023-03-30T01:26:52.891Z,0.40
2023-03-30T01:29:51.688Z,0.50
2023-03-30T01:32:54.098Z,0.50
2023-03-30T01:35:40.686Z,0.40
2023-03-30T01:38:59.660Z,0.40
2023-03-30T01:41:37.687Z,0.50
2023-03-30T01:44:13.789Z,0.40
2023-03-30T01:46:48.612Z,0.40
2023-03-30T01:49:24.072Z,0.30
2023-03-30T01:52:03.398Z,0.40
2023-03-30T01:54:35.370Z,0.40
2023-03-30T01:57:11.326Z,0.50
2023-03-30T01:59:46.269Z,0.40
2023-03-30T02:02:17.011Z,0.40
2023-03-30T02:04:48.115Z,0.40
2023-03-30T02:07:22.153Z,0.60
2023-03-30T02:09:53.848Z,0.40
2023-03-30T02:12:28.938Z,0.40
2023-03-30T02:15:00.012Z,0.47
2023-03-30T02:17:30.854Z,0.30
2023-03-30T02:20:00.473Z,0.50
2023-03-30T02:22:29.506Z,0.47
2023-03-30T02:24:59.956Z,0.40
2023-03-30T02:27:31.529Z,0.40
2023-03-30T02:30:00.219Z,0.40
2023-03-30T02:32:31.480Z,0.38
2023-03-30T02:35:29.377Z,0.45
2023-03-30T02:38:33.272Z,0.43
2023-03-30T02:41:14.941Z,0.40
2023-03-30T02:43:55.026Z,0.40
2023-03-30T02:46:48.388Z,0.50
2023-03-30T02:49:24.394Z,0.40
2023-03-30T02:52:03.213Z,0.40
2023-03-30T02:54:48.749Z,0.50
2023-03-30T02:57:32.679Z,0.50
2023-03-30T03:00:33.498Z,0.40
2023-03-30T03:03:08.016Z,0.60
2023-03-30T03:05:37.478Z,0.50
2023-03-30T03:08:10.915Z,0.40
2023-03-30T03:10:39.385Z,0.40
2023-03-30T03:13:07.891Z,0.35
2023-03-30T03:15:39.031Z,0.40
2023-03-30T03:18:10.057Z,0.40
2023-03-30T03:20:38.702Z,0.50
2023-03-30T03:23:07.764Z,0.43
2023-03-30T03:25:46.497Z,0.50
2023-03-30T03:28:17.069Z,0.40
2023-03-30T03:30:52.858Z,0.50
2023-03-30T03:33:28.353Z,0.40
2023-03-30T03:36:04.238Z,0.40
2023-03-30T03:38:35.767Z,0.40
2023-03-30T03:41:04.442Z,0.40
2023-03-30T03:43:33.825Z,0.40
2023-03-30T03:46:04.154Z,0.40
2023-03-30T03:48:33.250Z,0.40
2023-03-30T03:51:01.883Z,0.40
2023-03-30T03:53:34.402Z,0.40
2023-03-30T03:56:06.995Z,0.50
2023-03-30T03:58:36.072Z,0.40
2023-03-30T04:01:06.681Z,0.40
2023-03-30T04:03:35.223Z,0.30
2023-03-30T04:06:03.943Z,0.40
2023-03-30T04:08:33.592Z,0.40
2023-03-30T04:11:26.173Z,0.47
2023-03-30T04:14:21.054Z,0.50
2023-03-30T04:17:11.308Z,0.40
2023-03-30T04:19:56.145Z,0.40
2023-03-30T04:22:41.602Z,0.38
2023-03-30T04:25:29.331Z,0.50
2023-03-30T04:28:37.396Z,0.40
2023-03-30T04:31:41.641Z,0.40
2023-03-30T04:34:30.696Z,0.40
2023-03-30T04:37:08.917Z,0.40
2023-03-30T04:39:50.475Z,0.40
2023-03-30T04:42:39.181Z,0.40
2023-03-30T04:45:24.906Z,0.40
2023-03-30T04:48:02.704Z,0.40
2023-03-30T04:50:53.620Z,0.40
2023-03-30T04:53:40.729Z,0.40
2023-03-30T04:56:28.086Z,0.40
2023-03-30T04:58:56.921Z,0.40
2023-03-30T05:01:42.459Z,0.50
2023-03-30T05:04:20.970Z,0.40
2023-03-30T05:07:14.307Z,0.40
2023-03-30T05:09:58.756Z,0.40
2023-03-30T05:12:42.450Z,0.40
2023-03-30T05:15:19.479Z,0.40
2023-03-30T05:17:54.924Z,0.40
2023-03-30T05:20:42.127Z,0.40
2023-03-30T05:23:36.153Z,0.40
2023-03-30T05:26:23.464Z,0.40
2023-03-30T05:29:10.804Z,0.40
2023-03-30T05:31:57.692Z,0.40
2023-03-30T05:34:44.585Z,0.40
2023-03-30T05:37:22.561Z,0.40
2023-03-30T05:40:12.162Z,0.40
2023-03-30T05:43:03.591Z,0.50
2023-03-30T05:45:51.249Z,0.40
2023-03-30T05:48:33.382Z,0.40
2023-03-30T05:51:25.478Z,0.40
2023-03-30T05:54:14.727Z,0.50
2023-03-30T05:56:59.538Z,0.40
2023-03-30T05:59:28.469Z,0.30
2023-03-30T06:02:17.396Z,0.40
2023-03-30T06:04:47.222Z,0.30
2023-03-30T06:07:17.368Z,0.40
2023-03-30T06:09:46.154Z,0.40
2023-03-30T06:12:26.182Z,0.30
2023-03-30T06:14:54.921Z,0.40
2023-03-30T06:17:31.607Z,0.30
2023-03-30T06:20:00.164Z,0.30
2023-03-30T06:22:31.413Z,0.30
2023-03-30T06:25:19.789Z,0.38
2023-03-30T06:27:50.157Z,0.40
2023-03-30T06:30:19.386Z,0.50
2023-03-30T06:32:52.146Z,0.30
2023-03-30T06:35:37.872Z,0.30
2023-03-30T06:38:06.256Z,0.30
2023-03-30T06:40:34.581Z,0.30
2023-03-30T06:43:05.234Z,0.30
2023-03-30T06:45:36.552Z,0.30
2023-03-30T06:48:06.658Z,0.30
2023-03-30T06:50:38.210Z,0.30
2023-03-30T06:53:13.941Z,0.30
2023-03-30T06:55:45.191Z,0.40
2023-03-30T06:58:21.954Z,0.30
2023-03-30T07:00:51.901Z,0.30
2023-03-30T07:03:40.852Z,0.30
2023-03-30T07:06:22.140Z,0.30
2023-03-30T07:08:51.158Z,0.40
2023-03-30T07:11:23.924Z,0.30
2023-03-30T07:13:57.870Z,0.30
2023-03-30T07:16:26.701Z,0.40
2023-03-30T07:18:55.374Z,0.30
2023-03-30T07:21:24.554Z,0.30
2023-03-30T07:23:52.966Z,0.30
2023-03-30T07:26:38.064Z,0.30
2023-03-30T07:29:11.201Z,0.30
2023-03-30T07:31:43.046Z,0.30
2023-03-30T07:34:13.386Z,0.30
2023-03-30T07:36:48.640Z,0.30
2023-03-30T07:39:17.346Z,0.30
2023-03-30T07:41:47.489Z,0.30
2023-03-30T07:44:17.839Z,0.30
2023-03-30T07:46:46.380Z,0.30
2023-03-30T07:49:21.485Z,0.30
2023-03-30T07:51:50.207Z,0.30
2023-03-30T07:54:43.659Z,0.30
2023-03-30T07:57:20.342Z,0.30
2023-03-30T07:59:51.024Z,0.30
2023-03-30T08:02:38.878Z,0.30
2023-03-30T08:05:11.266Z,0.30
2023-03-30T08:08:01.300Z,0.30
2023-03-30T08:10:34.447Z,0.30
2023-03-30T08:13:04.153Z,0.30
2023-03-30T08:15:34.364Z,0.30
2023-03-30T08:18:06.232Z,0.30
2023-03-30T08:20:36.078Z,0.30
2023-03-30T08:23:04.540Z,0.30
2023-03-30T08:25:33.003Z,0.30
2023-03-30T08:28:01.694Z,0.30
2023-03-30T08:30:30.496Z,0.30
2023-03-30T08:33:01.029Z,0.30
2023-03-30T08:35:29.665Z,0.20
2023-03-30T08:37:58.065Z,0.25
2023-03-30T08:40:26.823Z,0.30
2023-03-30T08:43:18.300Z,0.30
2023-03-30T08:45:46.796Z,0.30
2023-03-30T08:48:21.678Z,0.20
2023-03-30T08:50:56.653Z,0.30
2023-03-30T08:53:25.156Z,0.20
2023-03-30T08:55:58.645Z,0.20
2023-03-30T08:58:34.733Z,0.20
2023-03-30T09:01:11.514Z,0.30
2023-03-30T09:03:46.917Z,0.30
2023-03-30T09:06:23.072Z,0.30
2023-03-30T09:08:52.803Z,0.20
2023-03-30T09:11:31.437Z,0.20
2023-03-30T09:14:02.677Z,0.20
2023-03-30T09:16:38.783Z,0.30
2023-03-30T09:19:16.124Z,0.20
2023-03-30T09:21:46.377Z,0.20
2023-03-30T09:24:22.823Z,0.30
2023-03-30T09:26:56.666Z,0.25
2023-03-30T09:29:29.620Z,0.30
2023-03-30T09:32:05.317Z,0.20
2023-03-30T09:34:43.331Z,0.20
2023-03-30T09:37:15.727Z,0.20
2023-03-30T09:39:45.456Z,0.30
2023-03-30T09:42:21.337Z,0.20
2023-03-30T09:44:53.841Z,0.20
2023-03-30T09:47:26.091Z,0.20
2023-03-30T09:50:02.040Z,0.20
2023-03-30T09:52:36.444Z,0.20
2023-03-30T09:55:26.689Z,0.22
2023-03-30T09:57:55.364Z,0.20
2023-03-30T10:00:28.758Z,0.20
2023-03-30T10:02:59.036Z,0.20
2023-03-30T10:05:30.393Z,0.30
2023-03-30T10:08:01.262Z,0.20
2023-03-30T10:10:34.105Z,0.20
2023-03-30T10:13:09.722Z,0.20
2023-03-30T10:15:40.017Z,0.20
2023-03-30T10:18:29.013Z,0.20
2023-03-30T10:21:04.112Z,0.20
2023-03-30T10:23:34.142Z,0.25
2023-03-30T10:26:04.566Z,0.20
2023-03-30T10:28:35.933Z,0.20
2023-03-30T10:31:08.381Z,0.30
2023-03-30T10:33:42.120Z,0.30
2023-03-30T10:36:15.246Z,0.20
2023-03-30T10:38:45.443Z,0.20
2023-03-30T10:41:17.028Z,0.30
2023-03-30T10:43:46.594Z,0.30
2023-03-30T10:46:20.478Z,0.30
2023-03-30T10:49:01.279Z,0.30
2023-03-30T10:51:44.332Z,0.25
2023-03-30T10:54:18.838Z,0.30
2023-03-30T10:56:52.521Z,0.20
2023-03-30T10:59:47.322Z,0.30
2023-03-30T11:02:31.587Z,0.30
2023-03-30T11:05:04.769Z,0.30
2023-03-30T11:07:39.941Z,0.30
2023-03-30T11:10:16.964Z,0.20
2023-03-30T11:12:49.640Z,0.30
2023-03-30T11:15:23.061Z,0.30
2023-03-30T11:18:01.200Z,0.20
2023-03-30T11:20:33.330Z,0.30
2023-03-30T11:23:11.141Z,0.30
2023-03-30T11:25:50.848Z,0.30
2023-03-30T11:28:26.056Z,0.30
2023-03-30T11:30:58.096Z,0.30
2023-03-30T11:33:33.744Z,0.30
2023-03-30T11:36:07.422Z,0.30
2023-03-30T11:38:46.720Z,0.28
2023-03-30T11:41:17.535Z,0.30
2023-03-30T11:43:45.999Z,0.30
2023-03-30T11:46:23.751Z,0.40
2023-03-30T11:49:17.846Z,0.30
2023-03-30T11:52:00.441Z,0.40
2023-03-30T11:55:01.732Z,0.40
2023-03-30T11:57:38.395Z,0.30
2023-03-30T12:00:33.935Z,0.40
2023-03-30T12:03:23.549Z,0.30
2023-03-30T12:05:58.863Z,0.30
2023-03-30T12:08:49.138Z,0.30
2023-03-30T12:11:28.442Z,0.30
2023-03-30T12:13:57.548Z,0.30
2023-03-30T12:16:33.339Z,0.30
2023-03-30T12:19:11.341Z,0.30
2023-03-30T12:21:47.822Z,0.30
2023-03-30T12:24:23.800Z,0.30
2023-03-30T12:27:05.372Z,0.30
2023-03-30T12:32:28.146Z,0.30
2023-03-30T12:34:58.868Z,0.30
2023-03-30T12:37:32.904Z,0.30
2023-03-30T12:40:06.012Z,0.30
2023-03-30T12:42:46.632Z,0.30
2023-03-30T12:45:26.564Z,0.30
2023-03-30T12:48:27.913Z,0.30
2023-03-30T12:51:08.727Z,0.30
2023-03-30T12:53:57.915Z,0.30
2023-03-30T12:56:38.256Z,0.30
2023-03-30T12:59:37.048Z,0.20
2023-03-30T13:02:40.658Z,0.20
2023-03-30T13:05:19.440Z,0.20
2023-03-30T13:07:48.056Z,0.20
2023-03-30T13:10:36.519Z,0.20
2023-03-30T13:13:06.403Z,0.30
2023-03-30T13:15:43.831Z,0.20
2023-03-30T13:18:34.764Z,0.30
2023-03-30T13:21:21.157Z,0.28
2023-03-30T13:24:21.036Z,0.30
2023-03-30T13:26:49.660Z,0.30
2023-03-30T13:29:18.293Z,0.30
2023-03-30T13:32:04.402Z,0.30
2023-03-30T13:35:06.797Z,0.30
2023-03-30T13:38:03.779Z,0.30
2023-03-30T13:40:48.459Z,0.30
2023-03-30T13:43:42.371Z,0.30
2023-03-30T13:46:19.942Z,0.30
2023-03-30T13:49:03.979Z,0.30
2023-03-30T13:51:33.258Z,0.30
2023-03-30T13:54:05.897Z,0.30
2023-03-30T13:56:38.818Z,0.30
2023-03-30T13:59:11.486Z,0.30
2023-03-30T14:01:41.745Z,0.22
2023-03-30T14:04:15.823Z,0.30
2023-03-30T14:06:46.643Z,0.30
2023-03-30T14:09:21.084Z,0.30
2023-03-30T14:11:52.477Z,0.30
2023-03-30T14:14:27.362Z,0.20
2023-03-30T14:16:57.077Z,0.30
2023-03-30T14:19:30.208Z,0.30
2023-03-30T14:22:02.225Z,0.30
2023-03-30T14:24:33.017Z,0.20
2023-03-30T14:27:05.113Z,0.30
2023-03-30T14:29:34.210Z,0.25
2023-03-30T14:32:08.946Z,0.20
2023-03-30T14:34:40.349Z,0.20
2023-03-30T14:37:11.794Z,0.20
2023-03-30T14:39:43.083Z,0.30
2023-03-30T14:42:18.349Z,0.30
2023-03-30T14:44:48.916Z,0.22
2023-03-30T14:47:19.490Z,0.30
2023-03-30T14:49:52.229Z,0.30
2023-03-30T14:52:22.314Z,0.30
2023-03-30T14:55:04.831Z,0.30
2023-03-30T14:57:41.308Z,0.30
2023-03-30T15:00:20.048Z,0.30
2023-03-30T15:02:50.391Z,0.30
2023-03-30T15:05:22.909Z,0.30
2023-03-30T15:07:52.249Z,0.28
2023-03-30T15:10:27.448Z,0.30
2023-03-30T15:12:58.258Z,0.30
2023-03-30T15:15:31.650Z,0.30
2023-03-30T15:18:01.600Z,0.30
2023-03-30T15:20:33.335Z,0.30
2023-03-30T15:23:02.286Z,0.30
2023-03-30T15:25:34.797Z,0.30
2023-03-30T15:28:05.169Z,0.30
2023-03-30T15:30:37.007Z,0.30
2023-03-30T15:33:07.600Z,0.28
2023-03-30T15:35:39.250Z,0.30
2023-03-30T15:38:17.389Z,0.30
2023-03-30T15:40:47.309Z,0.30
2023-03-30T15:43:17.971Z,0.20
2023-03-30T15:45:49.112Z,0.30
2023-03-30T15:48:21.268Z,0.30
2023-03-30T15:50:56.236Z,0.30
2023-03-30T15:53:42.993Z,0.30
2023-03-30T15:56:26.269Z,0.30
2023-03-30T15:58:55.120Z,0.30
2023-03-30T16:01:24.078Z,0.30
2023-03-30T16:03:57.650Z,0.30
2023-03-30T16:06:28.005Z,0.30
2023-03-30T16:08:56.231Z,0.30
2023-03-30T16:11:24.643Z,0.30
2023-03-30T16:13:54.481Z,0.30
2023-03-30T16:16:22.893Z,0.30
2023-03-30T16:18:51.247Z,0.30
2023-03-30T16:21:24.000Z,0.30
2023-03-30T16:23:54.285Z,0.30
2023-03-30T16:26:22.888Z,0.30
2023-03-30T16:28:53.171Z,0.40
2023-03-30T16:31:25.349Z,0.30
2023-03-30T16:33:54.209Z,0.30
2023-03-30T16:36:24.563Z,0.30
2023-03-30T16:38:55.091Z,0.30
2023-03-30T16:41:27.516Z,0.30
2023-03-30T16:43:56.007Z,0.30
2023-03-30T16:46:24.367Z,0.40
2023-03-30T16:48:52.748Z,0.30
2023-03-30T16:51:22.097Z,0.30
2023-03-30T16:53:50.424Z,0.35
2023-03-30T16:56:21.183Z,0.40
2023-03-30T16:58:50.212Z,0.30
2023-03-30T17:01:18.951Z,0.30
2023-03-30T17:03:47.565Z,0.40
2023-03-30T17:06:16.961Z,0.30
2023-03-30T17:08:46.210Z,0.30
2023-03-30T17:11:15.052Z,0.30
2023-03-30T17:13:46.832Z,0.43
2023-03-30T17:16:16.479Z,0.30
2023-03-30T17:18:44.895Z,0.40
2023-03-30T17:21:15.869Z,0.30
2023-03-30T17:23:47.041Z,0.30
2023-03-30T17:26:15.422Z,0.40
2023-03-30T17:28:46.178Z,0.30
2023-03-30T17:31:18.468Z,0.35
2023-03-30T17:33:48.191Z,0.30
2023-03-30T17:36:20.112Z,0.40
2023-03-30T17:38:49.264Z,0.30
2023-03-30T17:41:20.177Z,0.30
2023-03-30T17:43:51.006Z,0.30
2023-03-30T17:46:21.558Z,0.40
2023-03-30T17:48:50.631Z,0.40
2023-03-30T17:51:18.932Z,0.30
2023-03-30T17:53:47.436Z,0.30
2023-03-30T17:56:15.961Z,0.40
2023-03-30T17:58:44.960Z,0.40
2023-03-30T18:01:18.334Z,0.30
2023-03-30T18:03:47.057Z,0.40
2023-03-30T18:06:15.316Z,0.30
2023-03-30T18:08:44.687Z,0.40
2023-03-30T18:11:13.150Z,0.30
2023-03-30T18:13:41.583Z,0.50
2023-03-30T18:16:13.993Z,0.30
2023-03-30T18:18:44.331Z,0.30
2023-03-30T18:21:13.059Z,0.30
2023-03-30T18:23:41.684Z,0.40
2023-03-30T18:26:13.898Z,0.43
2023-03-30T18:28:43.029Z,0.30
2023-03-30T18:31:11.870Z,0.30
2023-03-30T18:33:41.290Z,0.40
2023-03-30T18:36:14.087Z,0.30
2023-03-30T18:38:43.797Z,0.40
2023-03-30T18:41:13.028Z,0.40
2023-03-30T18:43:41.828Z,0.30
2023-03-30T18:46:13.410Z,0.30
2023-03-30T18:48:42.035Z,0.40
2023-03-30T18:51:13.349Z,0.40
2023-03-30T18:53:41.997Z,0.40
2023-03-30T18:56:14.988Z,0.40
2023-03-30T18:58:43.853Z,0.30
2023-03-30T19:01:15.173Z,0.40
2023-03-30T19:03:44.603Z,0.40
2023-03-30T19:06:21.424Z,0.40
2023-03-30T19:08:50.544Z,0.30
2023-03-30T19:11:23.227Z,0.30
2023-03-30T19:13:52.157Z,0.30
2023-03-30T19:16:21.755Z,0.40
2023-03-30T19:18:50.603Z,0.50
2023-03-30T19:21:21.484Z,0.40
2023-03-30T19:23:50.661Z,0.38
2023-03-30T19:26:18.916Z,0.40
2023-03-30T19:28:47.388Z,0.40
2023-03-30T19:31:16.150Z,0.40
2023-03-30T19:33:44.953Z,0.40
2023-03-30T19:36:13.667Z,0.35
2023-03-30T19:38:44.439Z,0.40
2023-03-30T19:41:12.963Z,0.40
2023-03-30T19:43:41.205Z,0.30
2023-03-30T19:46:10.178Z,0.40
2023-03-30T19:48:38.523Z,0.32
2023-03-30T19:51:07.237Z,0.30
2023-03-30T19:53:36.793Z,0.40
2023-03-30T19:56:10.613Z,0.40
2023-03-30T19:58:40.058Z,0.40
2023-03-30T20:01:09.889Z,0.40
2023-03-30T20:03:38.846Z,0.30
2023-03-30T20:06:13.442Z,0.30
2023-03-30T20:08:42.886Z,0.30
2023-03-30T20:11:14.258Z,0.35
2023-03-30T20:13:45.498Z,0.30
2023-03-30T20:16:21.146Z,0.30
2023-03-30T20:18:50.231Z,0.30
2023-03-30T20:21:19.258Z,0.40
2023-03-30T20:23:48.580Z,0.40
2023-03-30T20:26:19.223Z,0.30
2023-03-30T20:28:48.039Z,0.40
2023-03-30T20:31:16.899Z,0.30
2023-03-30T20:33:45.728Z,0.40
2023-03-30T20:36:14.297Z,0.30
2023-03-30T20:38:45.484Z,0.40
2023-03-30T20:41:14.652Z,0.30
2023-03-30T20:43:56.348Z,0.40
2023-03-30T20:46:37.452Z,0.30
2023-03-30T20:49:06.000Z,0.40
2023-03-30T20:51:34.255Z,0.30
2023-03-30T20:54:02.794Z,0.40
2023-03-30T20:56:31.117Z,0.40
2023-03-30T20:59:01.900Z,0.40
2023-03-30T21:01:30.376Z,0.40
2023-03-30T21:04:00.762Z,0.38
2023-03-30T21:06:31.460Z,0.30
2023-03-30T21:09:02.985Z,0.40
2023-03-30T21:11:33.570Z,0.40
2023-03-30T21:14:03.886Z,0.40
2023-03-30T21:16:32.347Z,0.30
2023-03-30T21:19:01.183Z,0.30
2023-03-30T21:21:30.832Z,0.30
2023-03-30T21:24:00.048Z,0.40
2023-03-30T21:26:29.015Z,0.30
2023-03-30T21:28:57.846Z,0.30
2023-03-30T21:31:28.576Z,0.35
2023-03-30T21:33:57.071Z,0.40
2023-03-30T21:36:25.569Z,0.40
2023-03-30T21:38:55.788Z,0.40
2023-03-30T21:41:25.615Z,0.40
2023-03-30T21:43:54.011Z,0.30
2023-03-30T21:46:24.747Z,0.30
2023-03-30T21:48:55.836Z,0.30
2023-03-30T21:51:26.650Z,0.40
2023-03-30T21:53:59.036Z,0.40
2023-03-30T21:56:29.614Z,0.40
2023-03-30T21:59:00.538Z,0.40
2023-03-30T22:01:29.848Z,0.40
2023-03-30T22:04:05.481Z,0.30
2023-03-30T22:06:34.728Z,0.38
2023-03-30T22:09:03.408Z,0.40
2023-03-30T22:11:31.705Z,0.38
2023-03-30T22:14:00.268Z,0.40
2023-03-30T22:16:32.659Z,0.40
2023-03-30T22:19:03.838Z,0.40
2023-03-30T22:21:33.790Z,0.40
2023-03-30T22:24:02.628Z,0.40
2023-03-30T22:26:32.192Z,0.40
2023-03-30T22:29:02.206Z,0.40
2023-03-30T22:31:30.574Z,0.40
2023-03-30T22:33:59.391Z,0.40
2023-03-30T22:36:31.791Z,0.38
2023-03-30T22:39:01.887Z,0.40
2023-03-30T22:41:32.125Z,0.40
2023-03-30T22:44:00.739Z,0.40
2023-03-30T22:46:29.534Z,0.40
2023-03-30T22:48:59.580Z,0.40
2023-03-30T22:51:30.090Z,0.40
2023-03-30T22:53:59.409Z,0.40
2023-03-30T22:56:28.715Z,0.40
2023-03-30T22:58:57.716Z,0.40
2023-03-30T23:01:28.543Z,0.30
2023-03-30T23:03:59.019Z,0.30
2023-03-30T23:06:30.608Z,0.30
2023-03-30T23:09:01.058Z,0.40
2023-03-30T23:11:29.319Z,0.40
2023-03-30T23:14:04.466Z,0.40
2023-03-30T23:16:37.064Z,0.30
2023-03-30T23:19:06.926Z,0.40
2023-03-30T23:21:37.179Z,0.40
2023-03-30T23:24:07.938Z,0.40
2023-03-30T23:26:36.399Z,0.40
2023-03-30T23:29:05.014Z,0.40
2023-03-30T23:31:36.638Z,0.30
2023-03-30T23:34:05.408Z,0.40
2023-03-30T23:36:34.467Z,0.32
2023-03-30T23:39:05.031Z,0.30
2023-03-30T23:41:33.524Z,0.40
2023-03-30T23:44:02.089Z,0.40
2023-03-30T23:46:30.717Z,0.40
2023-03-30T23:49:02.888Z,0.40
2023-03-30T23:51:32.057Z,0.40
2023-03-30T23:54:05.606Z,0.30
2023-03-30T23:56:41.474Z,0.40
2023-03-30T23:59:11.708Z,0.40
